»·PEaware :: BAW102 CYYC-EGLL

BAW102 :: CYYC-EGLL

FLIGHT INFORMATION

Flight Status: Arrived
Operator:
British Airways
More flights by this operator :: More flights under this callsign
Pilot: Andrew J. (13363)
Aircraft: BOEING 777-200
(B772)
More flights by this aircraft type
Origin: CYYC Calgary Intl
Canada
Destination: EGLL Heathrow
United Kingdom
More flights between these airports :: More routes between these airports
Route: AVROM Q933 MAPUX YMM 63N100W/N0490F370 66N090W 68N080W 6930N07000W/M084F370 ADSAM 70N060W 70N050W 69N040W 68N030W 65N020W/M084F390 RATSU/N0493F390 N610 STN UL612 LAKEY NUGRA BNN1B
File this flight plan on PilotEdge
Remarks: PBN / A1B1C1D1L1O1S2 NAV / RNVD1E2A1 DOF / 180322 REG / N712SB EET / BGGL0337 70N060W0346 70N050W0410 69N040W0436 68N030W0503 BIRD0506 65N020W0539 EGPX0623 EGTT0714 RALT / CYYQ CODE / WUPKSL OPR / BAW PER / D RMK / TCAS SIMBRIEF
Altitude:
(Current/Filed)
35,000ft
Speed:
(Current/Filed)
479kts
Departed: 22-Mar-18 06:27 PM
Arrived: 23-Mar-18 05:30 AM
Distance/Time
Traveled:
3785nm/11:03
Distance/Time
To Go:
Arrived

Flight Plot

Page will automatically refresh every two minutes.

Flight plan parsing failed; only flown route is shown


Map Options




Map Legend


Flown Route
Filed Route
Departure Airport
Arrival Airport
Navaid (VOR, NDB)
Fix

Horizontal Profiles

Position Reports

Time Latitude Longitude Heading Altitude Ground
Speed
22-Mar-18 18:08 51.129350 -113.999929 359 3570ft 0kts
22-Mar-18 18:09 51.128903 -113.999999 18 3570ft 2kts
22-Mar-18 18:10 51.128569 -114.000598 90 3570ft 2kts
22-Mar-18 18:11 51.128569 -114.000908 90 3570ft 0kts
22-Mar-18 18:12 51.128569 -114.000908 90 3570ft 0kts
22-Mar-18 18:13 51.128569 -114.000908 90 3570ft 0kts
22-Mar-18 18:14 51.128569 -114.000908 90 3570ft 0kts
22-Mar-18 18:15 51.128569 -114.000897 90 3570ft 0kts
22-Mar-18 18:16 51.127980 -113.998619 177 3570ft 6kts
22-Mar-18 18:17 51.127022 -113.997165 89 3570ft 5kts
22-Mar-18 18:18 51.127053 -113.993340 62 3570ft 9kts
22-Mar-18 18:19 51.129371 -113.993025 2 3570ft 7kts
22-Mar-18 18:20 51.131322 -113.993021 358 3570ft 8kts
22-Mar-18 18:21 51.135328 -113.993005 359 3570ft 17kts
22-Mar-18 18:22 51.139662 -113.992998 0 3570ft 13kts
22-Mar-18 18:23 51.143113 -113.992995 358 3570ft 11kts
22-Mar-18 18:24 51.146614 -113.993027 359 3570ft 18kts
22-Mar-18 18:25 51.148423 -113.990257 167 3570ft 1kts
22-Mar-18 18:26 51.136900 -113.990382 179 3570ft 136kts
22-Mar-18 18:27 51.084828 -113.986231 170 5229ft 209kts
22-Mar-18 18:28 51.025623 -113.945602 116 7282ft 254kts
22-Mar-18 18:29 51.032017 -113.843763 48 10061ft 296kts
22-Mar-18 18:30 51.123471 -113.817114 4 11841ft 383kts
22-Mar-18 18:31 51.235416 -113.809921 2 15010ft 416kts
22-Mar-18 18:32 51.353977 -113.803699 1 18362ft 434kts
22-Mar-18 18:33 51.477421 -113.796245 3 21317ft 454kts
22-Mar-18 18:34 51.603408 -113.750363 12 24071ft 473kts
22-Mar-18 18:35 51.734030 -113.701220 11 26572ft 491kts
22-Mar-18 18:36 51.869197 -113.649883 9 28905ft 508kts
22-Mar-18 18:37 52.008686 -113.596940 8 31078ft 518kts
22-Mar-18 18:38 52.148945 -113.543212 7 33233ft 519kts
22-Mar-18 18:39 52.289543 -113.488938 7 34871ft 521kts
22-Mar-18 18:40 52.430293 -113.434230 7 34891ft 518kts
22-Mar-18 18:41 52.569489 -113.379962 7 34901ft 506kts
22-Mar-18 18:42 52.691974 -113.331590 7 34911ft 490kts
22-Mar-18 18:43 52.691974 -113.331590 7 34911ft 490kts
22-Mar-18 18:44 52.809326 -113.281003 11 34919ft 492kts
22-Mar-18 18:45 52.940951 -113.211309 11 34926ft 504kts
22-Mar-18 18:46 53.074495 -113.141858 11 34929ft 501kts
22-Mar-18 18:47 53.207503 -113.073624 11 34930ft 500kts
22-Mar-18 18:48 53.340367 -113.004556 11 34943ft 499kts
22-Mar-18 18:49 53.472506 -112.935324 11 34955ft 497kts
22-Mar-18 18:50 53.604635 -112.865636 11 34961ft 496kts
22-Mar-18 18:51 53.735869 -112.795968 11 34980ft 494kts
22-Mar-18 18:52 53.866556 -112.726130 11 34990ft 492kts
22-Mar-18 18:53 53.997338 -112.655783 11 35002ft 491kts
22-Mar-18 18:54 54.126665 -112.585763 11 35017ft 486kts
22-Mar-18 18:55 54.255483 -112.515556 11 35032ft 486kts
22-Mar-18 18:56 54.384639 -112.444700 11 35045ft 485kts
22-Mar-18 18:57 54.513042 -112.373798 11 35083ft 485kts
22-Mar-18 18:58 54.641735 -112.302258 12 35087ft 485kts
22-Mar-18 18:59 54.769947 -112.230510 12 35100ft 484kts
22-Mar-18 19:00 54.897839 -112.158461 12 35113ft 483kts
22-Mar-18 19:01 55.025781 -112.085905 13 35124ft 481kts
22-Mar-18 19:02 55.152801 -112.013383 13 35136ft 480kts
22-Mar-18 19:03 55.279250 -111.940706 13 35149ft 477kts
22-Mar-18 19:04 55.405420 -111.867702 13 35216ft 476kts
22-Mar-18 19:05 55.530918 -111.794591 13 35234ft 475kts
22-Mar-18 19:06 55.656727 -111.720807 13 35253ft 475kts
22-Mar-18 19:07 55.781974 -111.646853 14 35279ft 475kts
22-Mar-18 19:08 55.907122 -111.572468 14 35294ft 475kts
22-Mar-18 19:09 56.032734 -111.497275 14 35307ft 475kts
22-Mar-18 19:10 56.157410 -111.422133 14 35319ft 473kts
22-Mar-18 19:11 56.281793 -111.346655 14 35328ft 472kts
22-Mar-18 19:12 56.406431 -111.270952 14 35335ft 471kts
22-Mar-18 19:13 56.530330 -111.194464 14 35339ft 471kts
22-Mar-18 19:14 56.653264 -111.110429 25 35339ft 477kts
22-Mar-18 19:15 56.761305 -110.968623 34 35340ft 480kts
22-Mar-18 19:16 56.867170 -110.820627 33 35341ft 479kts
22-Mar-18 19:17 56.973891 -110.673709 32 35343ft 478kts
22-Mar-18 19:18 57.080188 -110.527220 33 35348ft 478kts
22-Mar-18 19:19 57.186321 -110.378971 33 35354ft 477kts
22-Mar-18 19:20 57.291947 -110.230199 33 35624ft 482kts
22-Mar-18 19:21 57.398019 -110.079673 33 37351ft 481kts
22-Mar-18 19:22 57.503648 -109.928624 33 37393ft 479kts
22-Mar-18 19:23 57.608777 -109.777178 33 37403ft 478kts
22-Mar-18 19:24 57.714005 -109.624425 33 37414ft 478kts
22-Mar-18 19:25 57.818784 -109.471191 34 37411ft 478kts
22-Mar-18 19:26 57.923389 -109.317047 34 37420ft 478kts
22-Mar-18 19:27 58.028019 -109.161674 34 37429ft 478kts
22-Mar-18 19:28 58.131901 -109.006227 34 37438ft 476kts
22-Mar-18 19:29 58.235422 -108.850135 34 37447ft 476kts
22-Mar-18 19:30 58.339042 -108.692691 34 37457ft 476kts
22-Mar-18 19:31 58.442120 -108.534853 34 37467ft 475kts
22-Mar-18 19:32 58.544950 -108.376157 34 37507ft 476kts
22-Mar-18 19:33 58.647972 -108.215948 34 37522ft 476kts
22-Mar-18 19:34 58.750514 -108.055210 34 37530ft 476kts
22-Mar-18 19:35 58.852819 -107.893586 34 37560ft 475kts
22-Mar-18 19:36 58.955151 -107.730634 34 37570ft 475kts
22-Mar-18 19:37 59.056871 -107.567392 35 37578ft 475kts
22-Mar-18 19:38 59.158451 -107.403035 35 37585ft 475kts
22-Mar-18 19:39 59.260110 -107.237244 35 37600ft 475kts
22-Mar-18 19:40 59.361164 -107.071116 35 37611ft 475kts
22-Mar-18 19:41 59.461971 -106.904047 35 37613ft 474kts
22-Mar-18 19:42 59.562847 -106.735514 35 37614ft 475kts
22-Mar-18 19:43 59.663141 -106.566573 35 37614ft 474kts
22-Mar-18 19:44 59.763208 -106.396636 36 37614ft 474kts
22-Mar-18 19:45 59.863318 -106.225237 36 37613ft 474kts
22-Mar-18 19:46 59.962869 -106.053371 36 37612ft 474kts
22-Mar-18 19:47 60.062263 -105.880356 36 37611ft 474kts
22-Mar-18 19:48 60.161797 -105.705651 36 37610ft 475kts
22-Mar-18 19:49 60.260831 -105.530374 36 37613ft 474kts
22-Mar-18 19:50 60.359565 -105.354139 36 37614ft 474kts
22-Mar-18 19:51 60.458374 -105.176278 36 37623ft 474kts
22-Mar-18 19:52 60.556570 -104.998015 37 37637ft 474kts
22-Mar-18 19:53 60.654596 -104.818548 37 37639ft 474kts
22-Mar-18 19:54 60.736372 -104.667651 37 37642ft 474kts
22-Mar-18 19:55 60.850141 -104.455912 37 37646ft 474kts
22-Mar-18 19:56 60.947441 -104.273112 37 37649ft 474kts
22-Mar-18 19:57 61.028680 -104.119275 37 37652ft 475kts
22-Mar-18 19:58 61.141743 -103.903291 37 37656ft 475kts
22-Mar-18 19:59 61.238336 -103.717015 38 37660ft 475kts
22-Mar-18 20:00 61.318975 -103.560242 38 37664ft 475kts
22-Mar-18 20:01 61.431173 -103.340168 38 37669ft 475kts
22-Mar-18 20:02 61.511129 -103.181948 38 37673ft 475kts
22-Mar-18 20:03 61.607189 -102.990284 38 37678ft 475kts
22-Mar-18 20:04 61.702603 -102.798191 39 37697ft 475kts
22-Mar-18 20:05 61.797808 -102.604781 39 37726ft 475kts
22-Mar-18 20:06 61.893126 -102.409375 39 37740ft 476kts
22-Mar-18 20:07 61.987915 -102.213271 39 37746ft 476kts
22-Mar-18 20:08 62.082448 -102.015891 39 37750ft 476kts
22-Mar-18 20:09 62.177039 -101.816560 39 37758ft 477kts
22-Mar-18 20:10 62.271091 -101.616515 40 37763ft 477kts
22-Mar-18 20:11 62.365216 -101.414445 40 37769ft 477kts
22-Mar-18 20:12 62.458748 -101.211754 40 37775ft 477kts
22-Mar-18 20:13 62.551917 -101.007935 40 37804ft 477kts
22-Mar-18 20:14 62.645174 -100.801981 40 37817ft 477kts
22-Mar-18 20:15 62.737850 -100.595354 41 37808ft 477kts
22-Mar-18 20:16 62.830723 -100.388515 41 37809ft 478kts
22-Mar-18 20:17 62.922858 -100.177719 41 37812ft 478kts
22-Mar-18 20:18 63.014227 -99.965742 43 37816ft 480kts
22-Mar-18 20:19 63.097887 -99.736007 47 37819ft 481kts
22-Mar-18 20:20 63.181005 -99.503251 47 37823ft 481kts
22-Mar-18 20:21 63.264923 -99.272855 46 37827ft 481kts
22-Mar-18 20:22 63.349010 -99.040625 46 37831ft 481kts
22-Mar-18 20:23 63.431969 -98.806909 47 37834ft 481kts
22-Mar-18 20:24 63.514483 -98.571720 47 37838ft 481kts
22-Mar-18 20:25 63.596913 -98.334248 47 37859ft 481kts
22-Mar-18 20:26 63.678702 -98.096107 47 37859ft 481kts
22-Mar-18 20:27 63.760394 -97.855700 48 37860ft 482kts
22-Mar-18 20:28 63.841418 -97.614716 48 37859ft 482kts
22-Mar-18 20:29 63.922002 -97.372438 48 37859ft 481kts
22-Mar-18 20:30 64.002417 -97.128032 48 37860ft 481kts
22-Mar-18 20:31 64.082199 -96.882937 49 37859ft 481kts
22-Mar-18 20:32 64.161535 -96.636513 49 37859ft 481kts
22-Mar-18 20:33 64.240652 -96.388050 49 37859ft 481kts
22-Mar-18 20:34 64.319070 -96.139045 49 37859ft 480kts
22-Mar-18 20:35 64.397033 -95.888716 49 37859ft 481kts
22-Mar-18 20:36 64.474848 -95.636044 50 37858ft 481kts
22-Mar-18 20:37 64.551977 -95.382771 50 37855ft 481kts
22-Mar-18 20:38 64.628933 -95.127178 50 37852ft 481kts
22-Mar-18 20:39 64.705171 -94.871035 51 37847ft 481kts
22-Mar-18 20:40 64.780962 -94.613513 51 37842ft 480kts
22-Mar-18 20:41 64.856475 -94.353916 51 37836ft 480kts
22-Mar-18 20:42 64.931313 -94.093654 52 37829ft 480kts
22-Mar-18 20:43 65.005715 -93.831853 52 37823ft 481kts
22-Mar-18 20:44 65.079885 -93.567787 52 37814ft 480kts
22-Mar-18 20:45 65.153379 -93.302999 53 37813ft 481kts
22-Mar-18 20:46 65.226661 -93.035793 53 37804ft 481kts
22-Mar-18 20:47 65.299241 -92.767958 53 37796ft 481kts
22-Mar-18 20:48 65.371287 -92.498855 53 37787ft 481kts
22-Mar-18 20:49 65.443141 -92.227175 54 37777ft 481kts
22-Mar-18 20:50 65.514365 -91.954543 54 37711ft 481kts
22-Mar-18 20:51 65.585031 -91.680688 54 37701ft 481kts
22-Mar-18 20:52 65.655452 -91.404358 54 37694ft 481kts
22-Mar-18 20:53 65.725175 -91.127312 55 37688ft 482kts
22-Mar-18 20:54 65.794613 -90.847883 55 37682ft 481kts
22-Mar-18 20:55 65.863999 -90.569167 55 37677ft 481kts
22-Mar-18 20:56 65.931838 -90.287358 56 37672ft 481kts
22-Mar-18 20:57 65.999318 -90.003009 56 37667ft 481kts
22-Mar-18 20:58 66.068492 -89.721986 55 37699ft 481kts
22-Mar-18 20:59 66.136970 -89.439010 56 37706ft 481kts
22-Mar-18 21:00 66.205946 -89.155036 54 37705ft 480kts
22-Mar-18 21:01 66.275280 -88.872334 56 37704ft 480kts
22-Mar-18 21:02 66.343361 -88.585383 56 37704ft 481kts
22-Mar-18 21:03 66.410575 -88.297579 56 37704ft 481kts
22-Mar-18 21:04 66.477250 -88.008167 56 37705ft 481kts
22-Mar-18 21:05 66.543606 -87.716223 57 37699ft 481kts
22-Mar-18 21:06 66.609185 -87.423760 58 37701ft 481kts
22-Mar-18 21:07 66.674267 -87.129513 58 37703ft 481kts
22-Mar-18 21:08 66.739077 -86.832446 58 37705ft 482kts
22-Mar-18 21:09 66.803144 -86.534669 58 37705ft 481kts
22-Mar-18 21:10 66.866812 -86.234532 59 37704ft 482kts
22-Mar-18 21:11 66.929760 -85.933577 59 37700ft 482kts
22-Mar-18 21:12 66.992128 -85.631095 59 37695ft 482kts
22-Mar-18 21:13 67.054141 -85.325981 60 37689ft 482kts
22-Mar-18 21:14 67.115359 -85.020351 60 37680ft 482kts
22-Mar-18 21:15 67.176251 -84.711824 60 37670ft 483kts
22-Mar-18 21:16 67.236333 -84.402868 61 37660ft 483kts
22-Mar-18 21:17 67.295857 -84.092163 61 37648ft 483kts
22-Mar-18 21:18 67.354997 -83.778751 61 37636ft 483kts
22-Mar-18 21:19 67.413333 -83.464831 62 37623ft 483kts
22-Mar-18 21:20 67.471249 -83.148310 62 37580ft 483kts
22-Mar-18 21:21 67.528363 -82.831279 62 37505ft 483kts
22-Mar-18 21:22 67.584836 -82.512828 63 37499ft 483kts
22-Mar-18 21:23 67.640847 -82.191902 63 37491ft 483kts
22-Mar-18 21:24 67.696021 -81.870648 63 37485ft 482kts
22-Mar-18 21:25 67.750543 -81.547991 64 37464ft 483kts
22-Mar-18 21:26 67.804644 -81.222521 64 37463ft 483kts
22-Mar-18 21:27 67.857930 -80.896590 65 37457ft 483kts
22-Mar-18 21:28 67.911910 -80.569494 65 37454ft 483kts
22-Mar-18 21:29 67.963030 -80.239668 66 37451ft 482kts
22-Mar-18 21:30 68.015171 -79.910777 62 37449ft 481kts
22-Mar-18 21:31 68.075978 -79.591249 61 37444ft 481kts
22-Mar-18 21:32 68.134876 -79.269632 62 37440ft 481kts
22-Mar-18 21:33 68.195047 -78.949257 61 37423ft 481kts
22-Mar-18 21:34 68.254597 -78.625454 62 37412ft 482kts
22-Mar-18 21:35 68.312618 -78.299770 63 37411ft 482kts
22-Mar-18 21:36 68.370132 -77.971110 63 37410ft 482kts
22-Mar-18 21:37 68.426823 -77.641731 63 37376ft 482kts
22-Mar-18 21:38 68.482836 -77.310861 64 37370ft 482kts
22-Mar-18 21:39 68.538408 -76.977042 64 37362ft 482kts
22-Mar-18 21:40 68.593168 -76.642509 65 37350ft 483kts
22-Mar-18 21:41 68.647471 -76.305011 65 37334ft 483kts
22-Mar-18 21:42 68.700947 -75.966830 65 37317ft 483kts
22-Mar-18 21:43 68.753766 -75.626946 66 37288ft 483kts
22-Mar-18 21:44 68.806005 -75.284744 66 37266ft 482kts
22-Mar-18 21:45 68.857384 -74.942066 66 37242ft 483kts
22-Mar-18 21:46 68.908255 -74.596535 67 37219ft 483kts
22-Mar-18 21:47 68.958283 -74.250408 67 37196ft 483kts
22-Mar-18 21:48 69.007590 -73.902837 67 37175ft 483kts
22-Mar-18 21:49 69.056384 -73.552305 68 37156ft 483kts
22-Mar-18 21:50 69.104309 -73.201329 68 37141ft 483kts
22-Mar-18 21:51 69.151526 -72.848731 68 37128ft 483kts
22-Mar-18 21:52 69.198190 -72.493312 68 37106ft 484kts
22-Mar-18 21:53 69.243971 -72.137533 69 37098ft 484kts
22-Mar-18 21:54 69.289182 -71.778968 69 37100ft 484kts
22-Mar-18 21:55 69.333518 -71.419972 69 37104ft 484kts
22-Mar-18 21:56 69.377134 -71.059329 70 37101ft 484kts
22-Mar-18 21:57 69.421326 -70.697259 70 37109ft 484kts
22-Mar-18 21:58 69.462730 -70.333477 71 37120ft 484kts
22-Mar-18 21:59 69.503501 -69.967009 73 37133ft 484kts
22-Mar-18 22:00 69.533231 -69.592723 77 37144ft 485kts
22-Mar-18 22:01 69.560711 -69.215964 77 37155ft 485kts
22-Mar-18 22:02 69.590210 -68.838646 75 37164ft 485kts
22-Mar-18 22:03 69.619803 -68.462032 77 37169ft 485kts
22-Mar-18 22:04 69.647194 -68.083722 78 37174ft 484kts
22-Mar-18 22:05 69.673722 -67.703551 78 37175ft 484kts
22-Mar-18 22:06 69.699354 -67.323389 78 37175ft 485kts
22-Mar-18 22:07 69.724199 -66.941760 79 37173ft 485kts
22-Mar-18 22:08 69.748297 -66.557934 79 37202ft 485kts
22-Mar-18 22:09 69.771468 -66.174789 80 37201ft 485kts
22-Mar-18 22:10 69.793863 -65.789831 80 37199ft 484kts
22-Mar-18 22:11 69.811827 -65.469433 80 37199ft 485kts
22-Mar-18 22:12 69.836042 -65.019207 81 37199ft 485kts
22-Mar-18 22:13 69.852696 -64.695789 81 37200ft 485kts
22-Mar-18 22:14 69.874948 -64.243925 82 37202ft 485kts
22-Mar-18 22:15 69.891586 -63.921297 81 37211ft 485kts
22-Mar-18 22:16 69.908124 -63.531045 83 37158ft 485kts
22-Mar-18 22:17 69.923936 -63.141400 84 37156ft 486kts
22-Mar-18 22:18 69.935311 -62.748562 85 37150ft 486kts
22-Mar-18 22:19 69.945639 -62.356785 86 37136ft 485kts
22-Mar-18 22:20 69.957886 -61.965506 84 37116ft 485kts
22-Mar-18 22:21 69.968656 -61.572356 86 37110ft 485kts
22-Mar-18 22:22 69.977785 -61.179646 86 37105ft 486kts
22-Mar-18 22:23 69.987154 -60.786351 86 37101ft 486kts
22-Mar-18 22:24 69.994173 -60.391469 88 37095ft 486kts
22-Mar-18 22:25 70.000049 -59.998085 87 37092ft 485kts
22-Mar-18 22:26 70.009609 -59.603697 86 37088ft 485kts
22-Mar-18 22:27 70.017889 -59.210640 87 37085ft 484kts
22-Mar-18 22:28 70.026422 -58.818201 85 37082ft 484kts
22-Mar-18 22:29 70.036862 -58.424598 87 37081ft 484kts
22-Mar-18 22:30 70.044196 -58.031343 88 37083ft 485kts
22-Mar-18 22:31 70.050473 -57.637726 88 37081ft 484kts
22-Mar-18 22:32 70.055870 -57.242860 88 37080ft 484kts
22-Mar-18 22:33 70.060373 -56.849736 89 37079ft 483kts
22-Mar-18 22:34 70.064014 -56.456539 89 37078ft 483kts
22-Mar-18 22:35 70.066792 -56.061707 90 37078ft 484kts
22-Mar-18 22:36 70.068698 -55.668127 90 37077ft 483kts
22-Mar-18 22:37 70.069739 -55.273572 90 37077ft 483kts
22-Mar-18 22:38 70.069909 -54.880641 91 37077ft 483kts
22-Mar-18 22:39 70.069217 -54.487570 91 37079ft 483kts
22-Mar-18 22:40 70.067647 -54.092610 92 37080ft 484kts
22-Mar-18 22:41 70.065222 -53.698887 92 37079ft 484kts
22-Mar-18 22:42 70.061927 -53.305698 92 37079ft 483kts
22-Mar-18 22:43 70.057762 -52.911825 93 37078ft 483kts
22-Mar-18 22:44 70.052747 -52.519227 93 37075ft 483kts
22-Mar-18 22:45 70.046830 -52.124957 94 37079ft 484kts
22-Mar-18 22:46 70.040079 -51.732133 94 37079ft 484kts
22-Mar-18 22:47 70.032470 -51.339837 94 37082ft 483kts
22-Mar-18 22:48 70.024000 -50.947305 95 37087ft 482kts
22-Mar-18 22:49 70.015996 -50.556383 96 37080ft 482kts
22-Mar-18 22:50 70.004749 -50.166405 96 37080ft 482kts
22-Mar-18 22:51 69.986932 -49.778280 104 37079ft 480kts
22-Mar-18 22:52 69.956887 -49.399107 104 37079ft 480kts
22-Mar-18 22:53 69.926866 -49.018751 104 37078ft 481kts
22-Mar-18 22:54 69.900961 -48.637316 103 37077ft 481kts
22-Mar-18 22:55 69.872361 -48.258133 104 37212ft 485kts
22-Mar-18 22:56 69.842189 -47.878575 104 39050ft 482kts
22-Mar-18 22:57 69.811317 -47.502164 105 39074ft 481kts
22-Mar-18 22:58 69.779620 -47.126621 105 39074ft 481kts
22-Mar-18 22:59 69.746997 -46.750823 106 39071ft 481kts
22-Mar-18 23:00 69.713729 -46.377798 106 39071ft 480kts
22-Mar-18 23:01 69.679707 -46.006415 106 39068ft 480kts
22-Mar-18 23:02 69.644816 -45.635242 107 39066ft 480kts
22-Mar-18 23:03 69.609221 -45.266119 107 39018ft 480kts
22-Mar-18 23:04 69.572825 -44.897976 107 38998ft 481kts
22-Mar-18 23:05 69.535535 -44.529888 108 39009ft 481kts
22-Mar-18 23:06 69.497628 -44.164559 108 38997ft 480kts
22-Mar-18 23:07 69.458990 -43.800824 108 38983ft 480kts
22-Mar-18 23:08 69.419453 -43.437079 108 38969ft 480kts
22-Mar-18 23:09 69.379243 -43.075461 109 39009ft 481kts
22-Mar-18 23:10 69.338274 -42.715087 109 38998ft 480kts
22-Mar-18 23:11 69.296465 -42.355255 110 38975ft 481kts
22-Mar-18 23:12 69.254199 -41.999255 110 38886ft 480kts
22-Mar-18 23:13 69.210968 -41.642695 110 38870ft 480kts
22-Mar-18 23:14 69.167128 -41.288537 111 38854ft 480kts
22-Mar-18 23:15 69.122417 -40.934587 111 38839ft 480kts
22-Mar-18 23:16 69.078411 -40.581875 112 38824ft 480kts
22-Mar-18 23:17 69.031302 -40.231957 112 38809ft 480kts
22-Mar-18 23:18 68.989333 -39.878848 104 38796ft 483kts
22-Mar-18 23:19 68.964520 -39.510336 102 38782ft 483kts
22-Mar-18 23:20 68.937482 -39.145101 103 38770ft 482kts
22-Mar-18 23:21 68.912389 -38.779131 102 38759ft 483kts
22-Mar-18 23:22 68.885740 -38.414294 103 38749ft 483kts
22-Mar-18 23:23 68.857366 -38.049618 104 38738ft 483kts
22-Mar-18 23:24 68.828247 -37.687329 104 38729ft 483kts
22-Mar-18 23:25 68.798347 -37.325984 104 38721ft 483kts
22-Mar-18 23:26 68.767578 -36.964452 104 38654ft 483kts
22-Mar-18 23:27 68.736198 -36.605711 105 38594ft 482kts
22-Mar-18 23:28 68.704048 -36.247847 105 38584ft 482kts
22-Mar-18 23:29 68.671018 -35.889647 105 38574ft 482kts
22-Mar-18 23:30 68.637328 -35.533556 105 38565ft 482kts
22-Mar-18 23:31 68.602952 -35.179152 106 38555ft 481kts
22-Mar-18 23:32 68.567723 -34.824756 106 38546ft 482kts
22-Mar-18 23:33 68.531876 -34.472676 106 38537ft 481kts
22-Mar-18 23:34 68.495291 -34.121717 107 38528ft 482kts
22-Mar-18 23:35 68.457828 -33.770531 107 38518ft 482kts
22-Mar-18 23:36 68.419767 -33.421727 107 38508ft 482kts
22-Mar-18 23:37 68.381046 -33.074665 107 38498ft 481kts
22-Mar-18 23:38 68.341499 -32.727855 108 38487ft 481kts
22-Mar-18 23:39 68.301360 -32.383307 108 38476ft 481kts
22-Mar-18 23:40 68.260538 -32.040196 108 38465ft 480kts
22-Mar-18 23:41 68.219028 -31.698444 108 38453ft 480kts
22-Mar-18 23:42 68.176695 -31.356932 109 38440ft 480kts
22-Mar-18 23:43 68.133836 -31.018004 109 38428ft 480kts
22-Mar-18 23:44 68.091346 -30.679829 108 38415ft 479kts
22-Mar-18 23:45 68.046602 -30.343187 110 38400ft 479kts
22-Mar-18 23:46 68.000530 -30.009934 114 38385ft 479kts
22-Mar-18 23:47 67.931773 -29.706524 125 38371ft 478kts
22-Mar-18 23:48 67.857587 -29.414203 124 38356ft 478kts
22-Mar-18 23:49 67.784910 -29.119540 122 38340ft 479kts
22-Mar-18 23:50 67.713054 -28.822650 123 38324ft 478kts
22-Mar-18 23:51 67.639918 -28.530997 124 38307ft 478kts
22-Mar-18 23:52 67.566153 -28.241525 124 38291ft 478kts
22-Mar-18 23:53 67.491719 -27.953393 124 38274ft 477kts
22-Mar-18 23:54 67.417030 -27.668039 124 38257ft 477kts
22-Mar-18 23:55 67.341793 -27.384303 125 38241ft 478kts
22-Mar-18 23:56 67.265738 -27.101161 125 38224ft 478kts
22-Mar-18 23:57 67.189442 -26.820739 125 38209ft 478kts
22-Mar-18 23:58 67.112663 -26.542081 125 38193ft 478kts
22-Mar-18 23:59 67.035105 -26.264184 126 38179ft 478kts
23-Mar-18 00:00 66.957332 -25.988990 126 38165ft 478kts
23-Mar-18 00:01 66.879102 -25.715599 126 38152ft 478kts
23-Mar-18 00:02 66.800126 -25.442991 126 38140ft 478kts
23-Mar-18 00:03 66.720949 -25.173055 127 38129ft 478kts
23-Mar-18 00:04 66.641303 -24.904782 127 38120ft 478kts
23-Mar-18 00:05 66.561226 -24.638339 127 38111ft 478kts
23-Mar-18 00:06 66.480407 -24.372679 127 38104ft 478kts
23-Mar-18 00:07 66.399321 -24.109301 128 38095ft 479kts
23-Mar-18 00:08 66.317467 -23.846588 128 38092ft 479kts
23-Mar-18 00:09 66.235506 -23.586632 128 38195ft 479kts
23-Mar-18 00:10 66.153147 -23.328471 129 38187ft 478kts
23-Mar-18 00:11 66.070197 -23.071476 129 38196ft 477kts
23-Mar-18 00:12 65.987225 -22.817389 129 38188ft 477kts
23-Mar-18 00:13 65.903766 -22.564740 129 38171ft 477kts
23-Mar-18 00:14 65.819765 -22.313345 130 38156ft 476kts
23-Mar-18 00:15 65.735725 -22.064676 130 38145ft 476kts
23-Mar-18 00:16 65.651343 -21.817800 130 38161ft 476kts
23-Mar-18 00:17 65.566230 -21.571553 130 38157ft 476kts
23-Mar-18 00:18 65.480940 -21.327552 131 38147ft 476kts
23-Mar-18 00:19 65.395245 -21.085085 131 38138ft 476kts
23-Mar-18 00:20 65.308868 -20.843365 131 38130ft 476kts
23-Mar-18 00:21 65.222431 -20.604108 131 38124ft 476kts
23-Mar-18 00:22 65.135915 -20.364533 132 38119ft 476kts
23-Mar-18 00:23 65.048368 -20.129457 132 38125ft 476kts
23-Mar-18 00:24 64.962871 -19.890859 128 38122ft 476kts
23-Mar-18 00:25 64.883436 -19.640166 128 38121ft 476kts
23-Mar-18 00:26 64.802798 -19.393809 129 38120ft 476kts
23-Mar-18 00:27 64.723398 -19.146100 128 38121ft 476kts
23-Mar-18 00:28 64.642769 -18.900478 129 38122ft 475kts
23-Mar-18 00:29 64.561729 -18.657917 129 38125ft 474kts
23-Mar-18 00:30 64.480314 -18.417095 129 38127ft 474kts
23-Mar-18 00:31 64.398269 -18.177028 130 38130ft 474kts
23-Mar-18 00:32 64.316141 -17.939287 130 38128ft 474kts
23-Mar-18 00:33 64.233727 -17.703254 130 38136ft 473kts
23-Mar-18 00:34 64.164491 -17.506866 130 38140ft 473kts
23-Mar-18 00:35 64.081461 -17.273610 130 38144ft 473kts
23-Mar-18 00:36 63.984037 -17.002982 131 38148ft 472kts
23-Mar-18 00:37 63.914310 -16.811306 131 38150ft 472kts
23-Mar-18 00:38 63.830499 -16.583085 131 38153ft 471kts
23-Mar-18 00:39 63.732134 -16.318166 132 38154ft 470kts
23-Mar-18 00:40 63.661844 -16.130772 132 38155ft 470kts
23-Mar-18 00:41 63.577224 -15.907257 132 38156ft 469kts
23-Mar-18 00:42 63.492045 -15.684507 132 38156ft 469kts
23-Mar-18 00:43 63.406818 -15.463851 132 38160ft 469kts
23-Mar-18 00:44 63.321319 -15.244671 133 38160ft 469kts
23-Mar-18 00:45 63.235254 -15.026209 133 38158ft 468kts
23-Mar-18 00:46 63.149203 -14.809896 133 38160ft 468kts
23-Mar-18 00:47 63.062603 -14.594344 133 38158ft 468kts
23-Mar-18 00:48 62.976055 -14.381017 134 38159ft 467kts
23-Mar-18 00:49 62.889244 -14.169032 134 38184ft 467kts
23-Mar-18 00:50 62.801787 -13.957530 134 38186ft 467kts
23-Mar-18 00:51 62.714447 -13.748321 135 38188ft 466kts
23-Mar-18 00:52 62.626849 -13.540464 135 38191ft 466kts
23-Mar-18 00:53 62.538645 -13.333119 135 38195ft 466kts
23-Mar-18 00:54 62.450490 -13.127845 135 38194ft 466kts
23-Mar-18 00:55 62.362049 -12.923799 135 38195ft 466kts
23-Mar-18 00:56 62.273079 -12.720432 135 38193ft 466kts
23-Mar-18 00:57 62.184146 -12.519005 136 38196ft 465kts
23-Mar-18 00:58 62.094668 -12.318202 136 38183ft 465kts
23-Mar-18 00:59 62.005197 -12.119232 136 38184ft 465kts
23-Mar-18 01:00 61.915476 -11.921507 136 38185ft 465kts
23-Mar-18 01:01 61.825206 -11.724345 136 38187ft 465kts
23-Mar-18 01:02 61.734945 -11.528988 136 38186ft 465kts
23-Mar-18 01:03 61.644425 -11.334793 137 38187ft 465kts
23-Mar-18 01:04 61.553350 -11.141143 137 38180ft 465kts
23-Mar-18 01:05 61.462306 -10.949259 137 38180ft 465kts
23-Mar-18 01:06 61.371008 -10.758516 137 38181ft 465kts
23-Mar-18 01:07 61.279181 -10.568332 138 38182ft 464kts
23-Mar-18 01:08 61.187837 -10.379043 137 38183ft 464kts
23-Mar-18 01:09 61.095350 -10.191606 138 38183ft 464kts
23-Mar-18 01:10 61.002820 -10.006141 140 38183ft 463kts
23-Mar-18 01:11 60.900490 -9.848428 147 38183ft 460kts
23-Mar-18 01:12 60.796775 -9.693136 146 38183ft 461kts
23-Mar-18 01:13 60.693113 -9.539652 146 38182ft 460kts
23-Mar-18 01:14 60.589339 -9.387075 146 38187ft 460kts
23-Mar-18 01:15 60.485036 -9.235310 147 38187ft 460kts
23-Mar-18 01:16 60.380982 -9.085149 147 38186ft 459kts
23-Mar-18 01:17 60.277319 -8.934830 146 38186ft 459kts
23-Mar-18 01:18 60.173254 -8.784845 147 38184ft 459kts
23-Mar-18 01:19 60.068958 -8.637839 147 38183ft 458kts
23-Mar-18 01:20 59.964288 -8.491248 148 38193ft 459kts
23-Mar-18 01:21 59.859566 -8.346360 148 38192ft 458kts
23-Mar-18 01:22 59.754840 -8.202690 148 38178ft 458kts
23-Mar-18 01:23 59.650293 -8.057554 148 38133ft 458kts
23-Mar-18 01:24 59.545685 -7.914601 148 38125ft 457kts
23-Mar-18 01:25 59.440891 -7.772957 148 38122ft 458kts
23-Mar-18 01:26 59.335461 -7.631595 148 38115ft 458kts
23-Mar-18 01:27 59.230194 -7.491523 148 38110ft 458kts
23-Mar-18 01:28 59.124902 -7.352469 148 38105ft 457kts
23-Mar-18 01:29 59.019049 -7.213738 148 38108ft 458kts
23-Mar-18 01:30 58.913425 -7.076355 149 38101ft 457kts
23-Mar-18 01:31 58.807343 -6.939392 149 38097ft 457kts
23-Mar-18 01:32 58.701448 -6.803704 149 38093ft 457kts
23-Mar-18 01:33 58.595582 -6.669026 149 38089ft 457kts
23-Mar-18 01:34 58.489275 -6.534789 149 38084ft 457kts
23-Mar-18 01:35 58.383308 -6.401037 149 38080ft 457kts
23-Mar-18 01:36 58.276965 -6.269352 149 38079ft 456kts
23-Mar-18 01:37 58.167713 -6.147138 158 38081ft 453kts
23-Mar-18 01:38 58.051137 -6.058832 160 38089ft 452kts
23-Mar-18 01:39 57.934839 -5.969149 160 38110ft 452kts
23-Mar-18 01:40 57.818451 -5.877857 159 38136ft 452kts
23-Mar-18 01:41 57.702391 -5.787635 160 38168ft 452kts
23-Mar-18 01:42 57.585835 -5.697948 160 38212ft 452kts
23-Mar-18 01:43 57.469560 -5.609104 160 38240ft 452kts
23-Mar-18 01:44 57.353172 -5.520782 160 38275ft 452kts
23-Mar-18 01:45 57.236444 -5.432329 160 38324ft 452kts
23-Mar-18 01:46 57.119780 -5.345346 160 38395ft 453kts
23-Mar-18 01:47 57.002936 -5.258753 160 38463ft 453kts
23-Mar-18 01:48 56.885782 -5.172592 161 38539ft 453kts
23-Mar-18 01:49 56.768805 -5.087204 161 38595ft 454kts
23-Mar-18 01:50 56.651692 -5.001154 161 38638ft 453kts
23-Mar-18 01:51 56.534230 -4.915930 161 38646ft 454kts
23-Mar-18 01:52 56.417242 -4.831734 161 38596ft 450kts
23-Mar-18 01:53 56.300619 -4.748409 161 38486ft 453kts
23-Mar-18 01:54 56.183697 -4.665410 161 38361ft 450kts
23-Mar-18 01:55 56.067555 -4.583034 161 38244ft 449kts
23-Mar-18 01:56 55.951029 -4.501672 162 38191ft 448kts
23-Mar-18 01:57 55.836242 -4.414256 153 38165ft 452kts
23-Mar-18 01:58 55.727266 -4.304047 154 38175ft 452kts
23-Mar-18 01:59 55.616990 -4.196022 154 38194ft 450kts
23-Mar-18 02:00 55.507109 -4.089044 154 38213ft 452kts
23-Mar-18 02:01 55.397276 -3.981365 154 38270ft 454kts
23-Mar-18 02:02 55.286681 -3.874983 154 38323ft 451kts
23-Mar-18 02:03 55.176373 -3.768945 154 38404ft 452kts
23-Mar-18 02:04 55.065641 -3.663433 155 38499ft 452kts
23-Mar-18 02:05 54.955022 -3.558406 155 38592ft 454kts
23-Mar-18 02:06 54.843897 -3.454286 155 38678ft 455kts
23-Mar-18 02:07 54.732184 -3.350486 155 38700ft 455kts
23-Mar-18 02:08 54.617487 -3.261383 160 38687ft 452kts
23-Mar-18 02:09 54.501987 -3.175806 159 38638ft 452kts
23-Mar-18 02:10 54.386084 -3.089387 159 38595ft 454kts
23-Mar-18 02:11 54.270470 -3.004174 159 38625ft 451kts
23-Mar-18 02:12 54.153286 -2.928996 165 38475ft 449kts
23-Mar-18 02:13 54.034415 -2.863789 164 38443ft 447kts
23-Mar-18 02:14 53.916123 -2.797066 164 38420ft 450kts
23-Mar-18 02:15 53.797424 -2.729347 164 38403ft 449kts
23-Mar-18 02:16 53.790220 -2.725273 164 38403ft 449kts
23-Mar-18 02:17 53.790220 -2.725273 164 38403ft 449kts
23-Mar-18 02:18 53.790220 -2.725273 164 38403ft 449kts
23-Mar-18 02:19 53.790220 -2.725273 164 38403ft 449kts
23-Mar-18 02:20 53.790220 -2.725273 164 38403ft 449kts
23-Mar-18 02:21 53.790220 -2.725273 164 38403ft 449kts
23-Mar-18 02:22 53.790220 -2.725273 164 38403ft 449kts
23-Mar-18 02:23 53.790220 -2.725273 164 38403ft 449kts
23-Mar-18 02:24 53.790220 -2.725273 164 38403ft 449kts
23-Mar-18 02:25 53.790220 -2.725273 164 38403ft 449kts
23-Mar-18 02:26 53.790220 -2.725273 164 38403ft 449kts
23-Mar-18 02:27 53.790220 -2.725273 164 38403ft 449kts
23-Mar-18 02:28 53.790220 -2.725273 164 38403ft 449kts
23-Mar-18 02:29 53.790220 -2.725273 164 38403ft 449kts
23-Mar-18 02:30 53.790220 -2.725273 164 38403ft 449kts
23-Mar-18 02:31 53.790220 -2.725273 164 38403ft 449kts
23-Mar-18 02:32 53.790220 -2.725273 164 38403ft 449kts
23-Mar-18 02:33 53.790220 -2.725273 164 38403ft 449kts
23-Mar-18 02:34 53.790220 -2.725273 164 38403ft 449kts
23-Mar-18 02:35 53.790220 -2.725273 164 38403ft 449kts
23-Mar-18 02:36 53.790220 -2.725273 164 38403ft 449kts
23-Mar-18 02:37 53.790220 -2.725273 164 38403ft 449kts
23-Mar-18 02:38 53.790220 -2.725273 164 38403ft 449kts
23-Mar-18 02:39 53.790220 -2.725273 164 38403ft 449kts
23-Mar-18 02:40 53.790220 -2.725273 164 38403ft 449kts
23-Mar-18 02:41 53.790220 -2.725273 164 38403ft 449kts
23-Mar-18 02:42 53.790220 -2.725273 164 38403ft 449kts
23-Mar-18 02:43 53.790220 -2.725273 164 38403ft 449kts
23-Mar-18 02:44 53.790220 -2.725273 164 38403ft 449kts
23-Mar-18 02:45 53.790220 -2.725273 164 38403ft 449kts
23-Mar-18 02:46 53.790220 -2.725273 164 38403ft 449kts
23-Mar-18 02:47 53.790220 -2.725273 164 38403ft 449kts
23-Mar-18 02:48 53.790220 -2.725273 164 38403ft 449kts
23-Mar-18 02:49 53.790220 -2.725273 164 38403ft 449kts
23-Mar-18 02:50 53.790220 -2.725273 164 38403ft 449kts
23-Mar-18 02:51 53.790220 -2.725273 164 38403ft 449kts
23-Mar-18 02:52 53.790220 -2.725273 164 38403ft 449kts
23-Mar-18 02:53 53.790220 -2.725273 164 38403ft 449kts
23-Mar-18 02:54 53.790220 -2.725273 164 38403ft 449kts
23-Mar-18 02:55 53.790220 -2.725273 164 38403ft 449kts
23-Mar-18 02:56 53.790220 -2.725273 164 38403ft 449kts
23-Mar-18 02:57 53.790220 -2.725273 164 38403ft 449kts
23-Mar-18 02:58 53.790220 -2.725273 164 38403ft 449kts
23-Mar-18 02:59 53.790220 -2.725273 164 38403ft 449kts
23-Mar-18 03:00 53.790220 -2.725273 164 38403ft 449kts
23-Mar-18 03:01 53.790220 -2.725273 164 38403ft 449kts
23-Mar-18 03:02 53.790220 -2.725273 164 38403ft 449kts
23-Mar-18 03:03 53.790220 -2.725273 164 38403ft 449kts
23-Mar-18 03:04 53.790220 -2.725273 164 38403ft 449kts
23-Mar-18 03:05 53.790220 -2.725273 164 38403ft 449kts
23-Mar-18 03:06 53.790220 -2.725273 164 38403ft 449kts
23-Mar-18 03:07 53.790220 -2.725273 164 38403ft 449kts
23-Mar-18 03:08 53.790220 -2.725273 164 38403ft 449kts
23-Mar-18 03:09 53.790220 -2.725273 164 38403ft 449kts
23-Mar-18 03:10 53.790220 -2.725273 164 38403ft 449kts
23-Mar-18 03:11 53.790220 -2.725273 164 38403ft 449kts
23-Mar-18 03:12 53.790220 -2.725273 164 38403ft 449kts
23-Mar-18 03:13 53.790220 -2.725273 164 38403ft 449kts
23-Mar-18 03:14 53.790220 -2.725273 164 38403ft 449kts
23-Mar-18 03:15 53.790220 -2.725273 164 38403ft 449kts
23-Mar-18 03:16 53.790220 -2.725273 164 38403ft 449kts
23-Mar-18 03:17 53.790220 -2.725273 164 38403ft 449kts
23-Mar-18 03:18 53.790220 -2.725273 164 38403ft 449kts
23-Mar-18 03:19 53.790220 -2.725273 164 38403ft 449kts
23-Mar-18 03:20 53.790220 -2.725273 164 38403ft 449kts
23-Mar-18 03:21 53.790220 -2.725273 164 38403ft 449kts
23-Mar-18 03:22 53.790220 -2.725273 164 38403ft 449kts
23-Mar-18 03:23 53.790220 -2.725273 164 38403ft 449kts
23-Mar-18 03:24 53.790220 -2.725273 164 38403ft 449kts
23-Mar-18 03:25 53.790220 -2.725273 164 38403ft 449kts
23-Mar-18 03:26 53.790220 -2.725273 164 38403ft 449kts
23-Mar-18 03:27 53.790220 -2.725273 164 38403ft 449kts
23-Mar-18 03:28 53.790220 -2.725273 164 38403ft 449kts
23-Mar-18 03:29 53.790220 -2.725273 164 38403ft 449kts
23-Mar-18 03:30 53.790220 -2.725273 164 38403ft 449kts
23-Mar-18 03:31 53.790220 -2.725273 164 38403ft 449kts
23-Mar-18 03:32 53.790220 -2.725273 164 38403ft 449kts
23-Mar-18 03:33 53.790220 -2.725273 164 38403ft 449kts
23-Mar-18 03:34 53.790220 -2.725273 164 38403ft 449kts
23-Mar-18 03:35 53.790220 -2.725273 164 38403ft 449kts
23-Mar-18 03:36 53.790220 -2.725273 164 38403ft 449kts
23-Mar-18 03:37 53.790220 -2.725273 164 38403ft 449kts
23-Mar-18 03:38 53.790220 -2.725273 164 38403ft 449kts
23-Mar-18 03:39 53.790220 -2.725273 164 38403ft 449kts
23-Mar-18 03:40 53.790220 -2.725273 164 38403ft 449kts
23-Mar-18 03:41 53.790220 -2.725273 164 38403ft 449kts
23-Mar-18 03:42 53.790220 -2.725273 164 38403ft 449kts
23-Mar-18 03:43 53.790220 -2.725273 164 38403ft 449kts
23-Mar-18 03:44 53.790220 -2.725273 164 38403ft 449kts
23-Mar-18 03:45 53.790220 -2.725273 164 38403ft 449kts
23-Mar-18 03:46 53.790220 -2.725273 164 38403ft 449kts
23-Mar-18 03:47 53.790220 -2.725273 164 38403ft 449kts
23-Mar-18 03:48 53.790220 -2.725273 164 38403ft 449kts
23-Mar-18 03:49 53.790220 -2.725273 164 38403ft 449kts
23-Mar-18 03:50 53.790220 -2.725273 164 38403ft 449kts
23-Mar-18 03:51 53.790220 -2.725273 164 38403ft 449kts
23-Mar-18 03:52 53.790220 -2.725273 164 38403ft 449kts
23-Mar-18 03:53 53.790220 -2.725273 164 38403ft 449kts
23-Mar-18 03:54 53.790220 -2.725273 164 38403ft 449kts
23-Mar-18 03:55 53.790220 -2.725273 164 38403ft 449kts
23-Mar-18 03:56 53.790220 -2.725273 164 38403ft 449kts
23-Mar-18 03:57 53.790220 -2.725273 164 38403ft 449kts
23-Mar-18 03:58 53.790220 -2.725273 164 38403ft 449kts
23-Mar-18 03:59 53.790220 -2.725273 164 38403ft 449kts
23-Mar-18 04:00 53.790220 -2.725273 164 38403ft 449kts
23-Mar-18 04:01 53.790220 -2.725273 164 38403ft 449kts
23-Mar-18 04:02 53.790220 -2.725273 164 38403ft 449kts
23-Mar-18 04:03 53.790220 -2.725273 164 38403ft 449kts
23-Mar-18 04:04 53.790220 -2.725273 164 38403ft 449kts
23-Mar-18 04:05 53.790220 -2.725273 164 38403ft 449kts
23-Mar-18 04:06 53.790220 -2.725273 164 38403ft 449kts
23-Mar-18 04:07 53.790220 -2.725273 164 38403ft 449kts
23-Mar-18 04:08 53.790220 -2.725273 164 38403ft 449kts
23-Mar-18 04:09 53.790220 -2.725273 164 38403ft 449kts
23-Mar-18 04:10 53.790220 -2.725273 164 38403ft 449kts
23-Mar-18 04:11 53.790220 -2.725273 164 38403ft 449kts
23-Mar-18 04:12 53.790220 -2.725273 164 38403ft 449kts
23-Mar-18 04:13 53.790220 -2.725273 164 38403ft 449kts
23-Mar-18 04:14 53.790220 -2.725273 164 38403ft 449kts
23-Mar-18 04:15 53.790220 -2.725273 164 38403ft 449kts
23-Mar-18 04:16 53.790220 -2.725273 164 38403ft 449kts
23-Mar-18 04:17 53.790220 -2.725273 164 38403ft 449kts
23-Mar-18 04:18 53.790220 -2.725273 164 38403ft 449kts
23-Mar-18 04:19 53.790220 -2.725273 164 38403ft 449kts
23-Mar-18 04:20 53.790220 -2.725273 164 38403ft 449kts
23-Mar-18 04:21 53.790220 -2.725273 164 38403ft 449kts
23-Mar-18 04:22 53.790220 -2.725273 164 38403ft 449kts
23-Mar-18 04:23 53.790220 -2.725273 164 38403ft 449kts
23-Mar-18 04:24 53.790220 -2.725273 164 38403ft 449kts
23-Mar-18 04:25 53.790220 -2.725273 164 38403ft 449kts
23-Mar-18 04:26 53.790220 -2.725273 164 38403ft 449kts
23-Mar-18 04:27 53.790220 -2.725273 164 38403ft 449kts
23-Mar-18 04:28 53.790220 -2.725273 164 38403ft 449kts
23-Mar-18 04:29 53.790220 -2.725273 164 38403ft 449kts
23-Mar-18 04:30 53.790220 -2.725273 164 38403ft 449kts
23-Mar-18 04:31 53.790220 -2.725273 164 38403ft 449kts
23-Mar-18 04:32 53.790220 -2.725273 164 38403ft 449kts
23-Mar-18 04:33 53.790220 -2.725273 164 38403ft 449kts
23-Mar-18 04:34 53.790220 -2.725273 164 38403ft 449kts
23-Mar-18 04:35 53.790220 -2.725273 164 38403ft 449kts
23-Mar-18 04:36 53.790220 -2.725273 164 38403ft 449kts
23-Mar-18 04:37 53.790220 -2.725273 164 38403ft 449kts
23-Mar-18 04:38 53.790220 -2.725273 164 38403ft 449kts
23-Mar-18 04:39 53.790220 -2.725273 164 38403ft 449kts
23-Mar-18 04:40 53.790220 -2.725273 164 38403ft 449kts
23-Mar-18 04:41 53.790220 -2.725273 164 38403ft 449kts
23-Mar-18 04:42 53.790220 -2.725273 164 38403ft 449kts
23-Mar-18 04:43 53.790220 -2.725273 164 38403ft 449kts
23-Mar-18 04:44 53.790220 -2.725273 164 38403ft 449kts
23-Mar-18 04:45 53.790220 -2.725273 164 38403ft 449kts
23-Mar-18 04:46 53.790220 -2.725273 164 38403ft 449kts
23-Mar-18 04:47 53.790220 -2.725273 164 38403ft 449kts
23-Mar-18 04:48 53.790220 -2.725273 164 38403ft 449kts
23-Mar-18 04:49 53.790220 -2.725273 164 38403ft 449kts
23-Mar-18 04:50 53.790220 -2.725273 164 38403ft 449kts
23-Mar-18 04:51 53.790220 -2.725273 164 38403ft 449kts
23-Mar-18 04:52 53.790220 -2.725273 164 38403ft 449kts
23-Mar-18 04:53 53.790220 -2.725273 164 38403ft 449kts
23-Mar-18 04:54 53.790220 -2.725273 164 38403ft 449kts
23-Mar-18 04:55 53.719358 -2.685345 164 38431ft 450kts
23-Mar-18 04:56 53.599893 -2.618368 164 38443ft 453kts
23-Mar-18 04:57 53.485232 -2.554603 164 38442ft 451kts
23-Mar-18 04:58 53.361738 -2.486178 164 38457ft 482kts
23-Mar-18 04:59 53.231858 -2.414400 164 38482ft 493kts
23-Mar-18 05:00 53.102345 -2.343839 164 38156ft 484kts
23-Mar-18 05:01 52.986279 -2.262900 152 36371ft 429kts
23-Mar-18 05:02 52.890064 -2.159765 151 33960ft 396kts
23-Mar-18 05:03 52.799314 -2.064535 152 31092ft 378kts
23-Mar-18 05:04 52.711904 -1.973471 152 28075ft 366kts
23-Mar-18 05:05 52.625666 -1.883669 153 25445ft 372kts
23-Mar-18 05:06 52.537447 -1.792838 153 23590ft 376kts
23-Mar-18 05:07 52.448946 -1.701641 152 21952ft 372kts
23-Mar-18 05:08 52.361750 -1.612905 153 20355ft 366kts
23-Mar-18 05:09 52.276430 -1.526683 153 18790ft 348kts
23-Mar-18 05:10 52.210320 -1.458126 149 17558ft 331kts
23-Mar-18 05:11 52.131258 -1.346767 144 15866ft 312kts
23-Mar-18 05:12 52.077236 -1.271407 145 14729ft 299kts
23-Mar-18 05:13 52.002660 -1.168372 145 13288ft 309kts
23-Mar-18 05:14 51.937866 -1.078872 145 12005ft 304kts
23-Mar-18 05:15 51.885314 -1.006779 145 11200ft 292kts
23-Mar-18 05:16 51.828943 -0.883492 120 9894ft 293kts
23-Mar-18 05:17 51.799039 -0.785191 120 8887ft 292kts
23-Mar-18 05:18 51.762856 -0.668130 120 7876ft 282kts
23-Mar-18 05:19 51.729439 -0.560944 123 7188ft 259kts
23-Mar-18 05:20 51.686452 -0.465887 132 6983ft 273kts
23-Mar-18 05:21 51.641707 -0.372337 132 6988ft 256kts
23-Mar-18 05:22 51.598615 -0.280728 130 6136ft 249kts
23-Mar-18 05:23 51.557427 -0.193105 139 5414ft 256kts
23-Mar-18 05:24 51.501115 -0.199169 213 4830ft 198kts
23-Mar-18 05:25 51.478008 -0.263199 265 3638ft 165kts
23-Mar-18 05:26 51.478344 -0.330932 265 1704ft 145kts
23-Mar-18 05:27 51.477874 -0.390760 266 584ft 131kts
23-Mar-18 05:28 51.477576 -0.448085 268 99ft 116kts
23-Mar-18 05:29 51.477524 -0.471971 270 96ft 22kts
23-Mar-18 05:30 51.475888 -0.474561 262 96ft 6kts
23-Mar-18 05:31 51.475790 -0.477265 269 96ft 5kts
23-Mar-18 05:32 51.475314 -0.481218 196 96ft 12kts
23-Mar-18 05:33 51.473301 -0.483575 182 96ft 9kts
23-Mar-18 05:34 51.471193 -0.483524 137 96ft 1kts
23-Mar-18 05:35 51.471150 -0.482749 89 96ft 1kts
23-Mar-18 05:36 51.471152 -0.482318 89 96ft 0kts
23-Mar-18 05:37 51.471152 -0.482318 89 96ft 0kts
23-Mar-18 05:38 51.471152 -0.482318 89 96ft 0kts
23-Mar-18 05:39 51.471152 -0.482318 89 96ft 0kts
23-Mar-18 05:40 51.471152 -0.482318 89 96ft 0kts
23-Mar-18 05:41 51.471152 -0.482318 89 96ft 0kts
23-Mar-18 05:42 51.471152 -0.482318 89 96ft 0kts
23-Mar-18 05:43 51.471152 -0.482318 89 96ft 0kts
23-Mar-18 05:44 51.471152 -0.482318 89 96ft 0kts

Navigation Log

Ident Type
Flight plan parsing failed, navigation log unavailable